Time;durP1;ratioP1;P1;durP2;ratioP2;P2;SDS_P1;SDS_P2;PMS_P1;PMS_P2;Temp;Humidity;BMP_temperature;BMP_pressure;BME280_temperature;BME280_humidity;BME280_pressure;Samples;Min_cycle;Max_cycle;Signal;HPM_P1;HPM_P2
2022/04/26 03:37:17;;;;;;;14.05;8.48;;;7.30;99.90;;;;;;5099186;28;20403;-81
2022/04/26 03:39:44;;;;;;;15.15;8.50;;;7.30;99.90;;;;;;5113287;28;20040;-80
2022/04/26 03:42:11;;;;;;;13.80;7.93;;;7.40;99.90;;;;;;5113138;28;20429;-81
2022/04/26 03:44:36;;;;;;;18.08;8.30;;;7.30;99.90;;;;;;5117270;28;20044;-79
2022/04/26 03:47:02;;;;;;;17.95;8.95;;;7.30;99.90;;;;;;5118336;28;20392;-80
2022/04/26 03:49:28;;;;;;;20.50;9.40;;;7.20;99.90;;;;;;5118374;27;20434;-80
2022/04/26 03:51:53;;;;;;;23.48;10.48;;;7.20;99.90;;;;;;5118405;28;20040;-80
2022/04/26 03:54:23;;;;;;;18.27;7.78;;;7.20;99.90;;;;;;5118372;28;20096;-80
2022/04/26 03:56:49;;;;;;;14.68;8.73;;;7.20;99.90;;;;;;5118021;28;20533;-79
2022/04/26 03:59:15;;;;;;;21.13;7.72;;;7.20;99.90;;;;;;5117096;28;20090;-81
2022/04/26 04:01:40;;;;;;;15.82;8.55;;;7.10;99.90;;;;;;5118288;28;20044;-81
2022/04/26 04:04:06;;;;;;;21.92;8.80;;;7.10;99.90;;;;;;5118012;28;20043;-81
2022/04/26 04:06:32;;;;;;;20.17;8.55;;;7.10;99.90;;;;;;5117522;28;20032;-79
2022/04/26 04:08:58;;;;;;;16.60;8.45;;;7.10;99.90;;;;;;5118113;28;20079;-80
2022/04/26 04:11:23;;;;;;;15.07;8.02;;;7.10;99.90;;;;;;5116719;28;20050;-80
2022/04/26 04:13:50;;;;;;;21.45;7.93;;;7.30;99.90;;;;;;5117975;28;20040;-80
2022/04/26 04:16:15;;;;;;;17.63;8.10;;;7.10;99.90;;;;;;5117994;28;20063;-80
2022/04/26 04:21:33;;;;;;;20.23;8.15;;;7.10;99.90;;;;;;5085484;28;20138;-80
2022/04/26 04:23:59;;;;;;;14.65;7.93;;;7.10;99.90;;;;;;5117773;28;20462;-80
2022/04/26 04:26:24;;;;;;;23.48;8.07;;;7.00;99.90;;;;;;5117645;28;20047;-81
2022/04/26 04:28:50;;;;;;;19.30;8.40;;;7.10;99.90;;;;;;5116693;28;20383;-81
2022/04/26 04:31:16;;;;;;;25.20;8.70;;;7.10;99.90;;;;;;5117594;28;20396;-81
2022/04/26 04:33:43;;;;;;;17.25;8.38;;;7.10;99.90;;;;;;5117921;28;20044;-81
2022/04/26 04:36:09;;;;;;;16.85;9.00;;;7.10;99.90;;;;;;5117488;28;20090;-80
2022/04/26 04:38:34;;;;;;;13.85;8.23;;;7.10;99.90;;;;;;5117623;28;20086;-80
2022/04/26 04:41:00;;;;;;;15.75;8.23;;;7.10;99.90;;;;;;5117241;28;20468;-82
2022/04/26 04:43:26;;;;;;;18.60;7.90;;;7.10;99.90;;;;;;5115973;28;20047;-81
2022/04/26 04:45:51;;;;;;;18.35;7.55;;;7.20;99.90;;;;;;5117535;28;20047;-81
2022/04/26 04:48:17;;;;;;;19.52;8.63;;;7.20;99.90;;;;;;5117175;28;20548;-81
2022/04/26 04:50:43;;;;;;;14.40;7.45;;;7.30;99.90;;;;;;5116283;28;20048;-82
2022/04/26 04:53:09;;;;;;;20.52;7.03;;;7.30;99.90;;;;;;5117326;28;20047;-82
2022/04/26 04:55:35;;;;;;;17.65;6.95;;;7.30;99.90;;;;;;5115990;28;20392;-81
2022/04/26 04:58:01;;;;;;;15.30;6.80;;;7.30;99.90;;;;;;5133286;27;20126;-82
2022/04/26 05:00:26;;;;;;;18.15;6.88;;;7.30;99.90;;;;;;5116908;28;20039;-81
2022/04/26 05:02:52;;;;;;;18.95;6.43;;;7.80;99.90;;;;;;5098953;28;20100;-80
2022/04/26 05:05:18;;;;;;;15.13;6.82;;;7.40;99.90;;;;;;5117102;28;20403;-82
2022/04/26 05:07:43;;;;;;;13.77;6.80;;;7.40;99.90;;;;;;5116925;28;20075;-82
2022/04/26 05:10:09;;;;;;;19.48;7.00;;;7.60;99.90;;;;;;5116913;28;20039;-81
2022/04/26 05:12:35;;;;;;;16.17;6.50;;;7.40;99.90;;;;;;5116789;28;20055;-80
2022/04/26 05:15:02;;;;;;;19.30;6.55;;;7.40;99.90;;;;;;5116619;28;20520;-80
2022/04/26 05:17:28;;;;;;;14.60;6.53;;;7.40;99.90;;;;;;5116039;28;20096;-81
2022/04/26 05:19:54;;;;;;;12.88;5.95;;;7.50;99.90;;;;;;5116642;28;20043;-80
2022/04/26 05:22:19;;;;;;;15.55;6.07;;;7.50;99.90;;;;;;5132880;27;20136;-80
2022/04/26 05:24:54;;;;;;;16.75;5.80;;;7.50;99.90;;;;;;5116604;28;20130;-79
2022/04/26 05:27:20;;;;;;;16.08;6.43;;;7.50;99.90;;;;;;5116678;28;20093;-80
2022/04/26 05:29:46;;;;;;;18.67;5.90;;;7.50;99.90;;;;;;5117043;27;20483;-80
2022/04/26 05:32:12;;;;;;;18.88;6.32;;;7.50;99.90;;;;;;5116240;28;20092;-80
2022/04/26 05:34:37;;;;;;;14.02;5.90;;;7.50;99.90;;;;;;5116623;28;20062;-82
2022/04/26 05:37:03;;;;;;;13.70;5.32;;;7.80;99.90;;;;;;5115599;28;20517;-80
2022/04/26 05:39:29;;;;;;;11.90;5.07;;;7.60;99.90;;;;;;5116223;28;20077;-81
2022/04/26 05:41:54;;;;;;;17.45;5.53;;;7.60;99.90;;;;;;5114890;28;20471;-82
2022/04/26 05:44:20;;;;;;;14.80;5.82;;;7.60;99.90;;;;;;5115116;28;20492;-81
2022/04/26 05:46:45;;;;;;;12.98;6.30;;;7.60;99.90;;;;;;5116246;28;20044;-80
2022/04/26 05:49:11;;;;;;;16.45;5.85;;;7.60;99.90;;;;;;5116022;28;20047;-81
2022/04/26 05:51:36;;;;;;;26.75;6.10;;;7.60;99.90;;;;;;5116222;28;20396;-81
2022/04/26 05:54:02;;;;;;;12.57;5.53;;;7.60;99.90;;;;;;5116256;28;20387;-81
2022/04/26 05:56:27;;;;;;;18.52;5.53;;;7.70;99.90;;;;;;5115721;28;20621;-82
2022/04/26 05:58:53;;;;;;;10.98;5.00;;;7.70;99.90;;;;;;5116035;28;20042;-81
2022/04/26 06:01:19;;;;;;;13.35;4.82;;;7.80;99.90;;;;;;5114749;28;20525;-81
2022/04/26 06:03:44;;;;;;;13.73;5.45;;;7.80;99.90;;;;;;5115832;28;20144;-80
2022/04/26 06:06:10;;;;;;;11.38;5.00;;;7.80;99.90;;;;;;5114811;28;20055;-82
2022/04/26 06:08:35;;;;;;;15.07;5.40;;;7.00;99.90;;;;;;5115813;28;20468;-81
2022/04/26 06:11:01;;;;;;;17.25;5.18;;;7.90;99.90;;;;;;5114551;28;20467;-81
2022/04/26 06:13:27;;;;;;;11.55;4.72;;;8.00;99.90;;;;;;5131854;27;20384;-82
2022/04/26 06:15:52;;;;;;;15.90;5.60;;;8.00;99.90;;;;;;5114702;28;20368;-79
2022/04/26 06:18:18;;;;;;;10.75;4.85;;;8.10;99.90;;;;;;5115950;28;20113;-79
2022/04/26 06:20:43;;;;;;;14.25;4.82;;;8.10;99.90;;;;;;5097630;28;20043;-80
2022/04/26 06:23:09;;;;;;;16.48;5.15;;;8.10;99.90;;;;;;5114390;28;20391;-81
2022/04/26 06:25:37;;;;;;;12.57;5.13;;;8.20;99.90;;;;;;5115604;28;20484;-80
2022/04/26 06:28:08;;;;;;;10.82;4.55;;;8.20;99.90;;;;;;5114577;28;20040;-81
2022/04/26 06:30:37;;;;;;;13.98;5.10;;;8.20;99.90;;;;;;5115329;28;20048;-80
2022/04/26 06:33:02;;;;;;;10.88;4.72;;;8.30;99.90;;;;;;5115395;28;20039;-82
2022/04/26 06:35:28;;;;;;;9.63;4.38;;;8.30;99.90;;;;;;5114458;28;20050;-81
2022/04/26 06:37:54;;;;;;;12.95;4.82;;;8.40;99.90;;;;;;5113873;28;20498;-80
2022/04/26 06:40:19;;;;;;;18.48;6.25;;;8.50;99.90;;;;;;5115068;28;20073;-81
2022/04/26 06:42:45;;;;;;;10.63;4.38;;;8.50;99.90;;;;;;5114692;28;20043;-79
2022/04/26 06:45:10;;;;;;;9.93;4.70;;;8.60;99.90;;;;;;5114027;28;20048;-80
2022/04/26 06:47:36;;;;;;;11.35;4.07;;;8.70;99.90;;;;;;5115172;28;20043;-80
2022/04/26 06:50:01;;;;;;;10.30;4.63;;;8.70;99.90;;;;;;5114849;28;20133;-80
2022/04/26 06:52:28;;;;;;;9.63;4.13;;;8.80;99.90;;;;;;5114839;28;20494;-80
2022/04/26 06:54:54;;;;;;;10.63;3.63;;;8.80;99.90;;;;;;5114633;28;20052;-80
2022/04/26 06:57:20;;;;;;;13.65;4.60;;;8.90;99.90;;;;;;5115043;28;20049;-82
2022/04/26 06:59:45;;;;;;;11.05;3.95;;;8.80;99.90;;;;;;5114813;28;20044;-82
2022/04/26 07:02:11;;;;;;;15.63;5.10;;;8.90;99.90;;;;;;5114626;28;20039;-82
2022/04/26 07:04:36;;;;;;;11.85;4.25;;;8.90;99.90;;;;;;5115187;28;20070;-82
2022/04/26 07:07:02;;;;;;;10.73;4.65;;;8.80;99.90;;;;;;5114840;28;20122;-81
2022/04/26 07:09:27;;;;;;;9.43;4.30;;;8.80;99.90;;;;;;5114674;28;20052;-80
2022/04/26 07:11:53;;;;;;;9.95;4.70;;;8.70;99.90;;;;;;5114361;28;20507;-80
2022/04/26 07:14:19;;;;;;;10.43;4.70;;;8.80;99.90;;;;;;5114535;28;20122;-81
2022/04/26 07:16:48;;;;;;;10.68;4.80;;;8.80;99.90;;;;;;5114235;28;20044;-82
2022/04/26 07:19:14;;;;;;;11.93;4.60;;;8.90;99.90;;;;;;5113960;28;20047;-80
2022/04/26 07:21:44;;;;;;;11.73;5.18;;;9.00;99.90;;;;;;5114353;28;20581;-81
2022/04/26 07:24:10;;;;;;;10.30;4.95;;;9.00;99.90;;;;;;5114257;28;20040;-82
2022/04/26 07:26:36;;;;;;;12.55;4.60;;;9.10;99.90;;;;;;5114445;28;20488;-82
2022/04/26 07:29:02;;;;;;;9.35;4.50;;;9.30;99.90;;;;;;5114313;28;20120;-82
2022/04/26 07:31:30;;;;;;;14.23;5.32;;;9.50;99.90;;;;;;5114544;28;20513;-81
2022/04/26 07:36:40;;;;;;;10.93;4.70;;;9.80;99.90;;;;;;5114197;28;20051;-81
2022/04/26 07:39:06;;;;;;;9.80;4.15;;;10.10;99.90;;;;;;5114190;28;20039;-81
2022/04/26 07:41:32;;;;;;;8.07;4.03;;;10.30;99.90;;;;;;5114319;28;20055;-80
2022/04/26 07:43:58;;;;;;;10.68;4.28;;;10.50;99.90;;;;;;5095911;28;20048;-82
2022/04/26 07:46:24;;;;;;;11.15;4.57;;;10.50;99.90;;;;;;5114133;28;20044;-79
2022/04/26 07:48:50;;;;;;;11.00;4.70;;;10.60;99.90;;;;;;5114224;28;20083;-81
2022/04/26 07:51:18;;;;;;;12.70;3.92;;;10.70;99.90;;;;;;5112726;28;20050;-82
2022/04/26 07:53:44;;;;;;;8.50;4.57;;;10.90;99.90;;;;;;5114458;28;20096;-80
2022/04/26 07:56:10;;;;;;;7.47;3.85;;;11.00;99.90;;;;;;5113694;28;20040;-82
2022/04/26 07:58:35;;;;;;;10.45;3.80;;;10.90;99.90;;;;;;5113540;28;20043;-81
2022/04/26 08:01:01;;;;;;;8.65;3.97;;;10.90;99.90;;;;;;5113099;28;20032;-81
2022/04/26 08:03:27;;;;;;;7.57;3.40;;;10.90;99.90;;;;;;5112852;28;20040;-80
2022/04/26 08:05:53;;;;;;;8.55;3.60;;;11.00;99.90;;;;;;5113931;28;20497;-81
2022/04/26 08:08:19;;;;;;;13.88;4.70;;;10.90;99.90;;;;;;5113982;28;20522;-80
2022/04/26 08:10:45;;;;;;;8.93;4.00;;;10.80;99.90;;;;;;5112754;28;20099;-80
2022/04/26 08:13:11;;;;;;;11.90;4.20;;;10.70;99.90;;;;;;5114151;28;20134;-80
2022/04/26 08:15:39;;;;;;;8.90;4.38;;;10.60;99.90;;;;;;5130249;27;20085;-83
2022/04/26 08:18:05;;;;;;;8.55;4.10;;;10.60;99.90;;;;;;5114182;28;20047;-81
2022/04/26 08:20:31;;;;;;;9.90;3.87;;;10.60;99.90;;;;;;5113815;28;20131;-81
2022/04/26 08:22:56;;;;;;;10.98;4.40;;;10.60;99.90;;;;;;5114518;28;20380;-82
2022/04/26 08:28:06;;;;;;;12.43;4.07;;;10.80;99.90;;;;;;5112831;28;20039;-82
2022/04/26 08:30:32;;;;;;;5.82;3.50;;;10.90;99.90;;;;;;5116352;28;20050;-82
2022/04/26 08:32:58;;;;;;;6.68;3.33;;;11.00;99.90;;;;;;5117782;28;20123;-81
2022/04/26 08:35:25;;;;;;;8.27;4.03;;;11.10;99.90;;;;;;5117595;28;20151;-80
2022/04/26 08:37:51;;;;;;;9.07;4.35;;;11.30;99.90;;;;;;5117621;27;20075;-80
2022/04/26 08:40:16;;;;;;;8.40;4.07;;;11.30;99.90;;;;;;5117653;28;20079;-82
2022/04/26 08:42:44;;;;;;;7.85;3.63;;;11.40;99.90;;;;;;5116867;28;20046;-82
2022/04/26 08:45:15;;;;;;;9.20;3.83;;;11.40;99.90;;;;;;5116173;28;20058;-81
2022/04/26 08:53:11;;;;;;;9.15;3.50;;;11.60;99.90;;;;;;5117311;28;20043;-82
2022/04/26 08:55:44;;;;;;;5.78;3.40;;;11.70;99.90;;;;;;5099123;28;20051;-81
2022/04/26 08:58:11;;;;;;;7.90;3.75;;;11.60;99.90;;;;;;5117048;28;20079;-82
2022/04/26 09:00:40;;;;;;;7.78;3.53;;;11.70;99.90;;;;;;5116242;28;20097;-80
2022/04/26 09:03:11;;;;;;;9.95;3.78;;;11.70;99.90;;;;;;5117016;28;20054;-81
2022/04/26 09:05:37;;;;;;;9.45;3.55;;;11.70;99.90;;;;;;5115421;28;20093;-80
2022/04/26 09:08:22;;;;;;;11.13;3.70;;;11.80;99.90;;;;;;5133166;27;20470;-82
2022/04/26 09:10:49;;;;;;;10.93;3.70;;;11.90;99.90;;;;;;5116764;28;20040;-81
2022/04/26 09:13:17;;;;;;;7.60;3.30;;;11.80;99.90;;;;;;5116924;28;20178;-80
2022/04/26 09:15:44;;;;;;;5.28;3.40;;;11.80;99.90;;;;;;5115491;28;20048;-82
2022/04/26 09:18:20;;;;;;;;;;;11.80;99.90;;;;;;5117332;28;20458;-82
2022/04/26 09:20:48;;;;;;;6.07;3.20;;;11.80;99.90;;;;;;5116716;28;20286;-83
2022/04/26 09:23:32;;;;;;;8.82;3.58;;;11.80;99.90;;;;;;5116378;28;20047;-82
2022/04/26 09:26:11;;;;;;;7.18;3.20;;;12.00;99.90;;;;;;5115713;28;20051;-81
2022/04/26 09:28:38;;;;;;;9.98;3.50;;;12.10;99.90;;;;;;5117016;28;20083;-82
2022/04/26 09:31:27;;;;;;;8.27;3.58;;;12.20;99.90;;;;;;5116466;28;20039;-81
2022/04/26 09:33:57;;;;;;;5.97;3.55;;;12.40;99.90;;;;;;5131847;27;20054;-81
2022/04/26 09:36:24;;;;;;;7.20;2.97;;;12.50;99.90;;;;;;5116149;28;20116;-80
2022/04/26 09:38:51;;;;;;;7.35;3.10;;;12.60;99.90;;;;;;5116451;28;20127;-81
2022/04/26 09:41:17;;;;;;;5.50;2.60;;;12.70;99.90;;;;;;5115597;28;20067;-81
2022/04/26 09:43:43;;;;;;;7.20;3.17;;;12.80;99.90;;;;;;5116091;28;20043;-82
2022/04/26 09:46:08;;;;;;;7.25;2.75;;;12.80;99.90;;;;;;5116113;28;20127;-81
2022/04/26 09:48:35;;;;;;;10.57;2.72;;;12.40;99.90;;;;;;5116066;28;20051;-81
2022/04/26 09:51:10;;;;;;;6.47;2.90;;;12.40;99.90;;;;;;5131803;27;20083;-80
2022/04/26 09:53:36;;;;;;;6.38;2.83;;;12.60;99.90;;;;;;5115767;28;20484;-80
2022/04/26 09:56:04;;;;;;;8.40;3.10;;;12.70;99.90;;;;;;5115016;28;20130;-81
2022/04/26 09:58:31;;;;;;;8.50;3.10;;;12.60;99.90;;;;;;5114970;28;20051;-81
2022/04/26 10:01:00;;;;;;;8.80;3.03;;;12.70;99.90;;;;;;5115744;28;20039;-81
2022/04/26 10:03:36;;;;;;;10.10;2.97;;;12.80;99.90;;;;;;5115728;28;20365;-81
2022/04/26 10:06:05;;;;;;;5.30;2.80;;;12.80;99.90;;;;;;5114744;28;20077;-81
2022/04/26 10:08:34;;;;;;;7.40;3.20;;;12.90;99.90;;;;;;5115447;28;20049;-82
2022/04/26 10:11:01;;;;;;;7.47;2.80;;;13.00;99.90;;;;;;5097803;28;20395;-82
2022/04/26 10:13:32;;;;;;;8.55;2.92;;;13.00;99.90;;;;;;5114399;28;20380;-82
2022/04/26 10:16:22;;;;;;;7.22;2.78;;;12.90;99.90;;;;;;5097807;28;20398;-81
2022/04/26 10:18:48;;;;;;;6.75;3.00;;;12.70;99.90;;;;;;5104128;28;20051;-81
2022/04/26 10:21:22;;;;;;;6.15;2.70;;;12.90;99.90;;;;;;5115101;28;20487;-81
2022/04/26 10:23:51;;;;;;;4.90;2.78;;;13.00;99.90;;;;;;5115185;28;20184;-80
2022/04/26 10:26:26;;;;;;;5.70;2.88;;;13.10;99.90;;;;;;5113986;28;20415;-81
2022/04/26 10:28:53;;;;;;;9.57;2.85;;;13.30;99.90;;;;;;5115196;28;20483;-82
2022/04/26 10:31:34;;;;;;;5.57;2.95;;;13.40;99.90;;;;;;5115156;28;20083;-83
2022/04/26 10:34:00;;;;;;;7.93;2.85;;;13.40;99.90;;;;;;5114045;28;20538;-80
2022/04/26 10:36:29;;;;;;;6.25;2.78;;;13.40;99.90;;;;;;5114118;28;20173;-81
2022/04/26 10:39:12;;;;;;;6.10;3.22;;;13.50;99.90;;;;;;5125926;28;20043;-79
2022/04/26 10:41:45;;;;;;;6.35;2.60;;;13.50;99.90;;;;;;5128784;28;20055;-79
2022/04/26 10:44:15;;;;;;;6.95;2.60;;;13.30;99.90;;;;;;5130086;28;20036;-80
2022/04/26 10:46:44;;;;;;;5.47;2.80;;;13.40;99.90;;;;;;5129010;28;20055;-81
2022/04/26 10:49:39;;;;;;;4.93;2.65;;;13.40;99.90;;;;;;5126655;28;20506;-80
2022/04/26 10:52:18;;;;;;;9.30;2.92;;;13.60;99.90;;;;;;5127101;28;20048;-79
2022/04/26 10:54:53;;;;;;;9.82;3.17;;;13.70;99.90;;;;;;5130851;28;20051;-80
2022/04/26 10:57:24;;;;;;;3.78;2.70;;;13.90;99.90;;;;;;5132792;28;20053;-81
2022/04/26 10:59:56;;;;;;;4.53;2.60;;;14.30;99.90;;;;;;5131402;28;20039;-78
2022/04/26 11:02:23;;;;;;;8.93;3.22;;;14.50;99.90;;;;;;5129762;28;20039;-76
2022/04/26 11:04:57;;;;;;;13.88;3.10;;;14.40;99.90;;;;;;5131384;28;20039;-76
2022/04/26 11:07:26;;;;;;;4.97;2.67;;;14.20;99.90;;;;;;5122870;28;20429;-80
2022/04/26 11:09:54;;;;;;;9.63;3.00;;;14.20;99.90;;;;;;5117062;28;20383;-81
2022/04/26 11:12:21;;;;;;;7.43;3.00;;;14.00;99.90;;;;;;5116151;28;20052;-82
2022/04/26 11:14:48;;;;;;;5.90;2.97;;;14.00;99.90;;;;;;5115422;28;20134;-83
2022/04/26 11:17:16;;;;;;;12.35;3.53;;;14.00;99.90;;;;;;5098416;28;20043;-82
2022/04/26 11:19:56;;;;;;;5.20;2.90;;;14.10;99.90;;;;;;5115383;28;20083;-81
2022/04/26 11:22:25;;;;;;;5.63;2.80;;;14.10;99.90;;;;;;5115322;28;20490;-80
2022/04/26 11:28:09;;;;;;;8.88;3.17;;;14.00;99.90;;;;;;5114211;28;20055;-81
2022/04/26 11:30:38;;;;;;;10.13;2.80;;;14.10;99.90;;;;;;5115237;28;20043;-81
2022/04/26 11:33:11;;;;;;;4.57;2.63;;;14.30;99.90;;;;;;5114589;28;20516;-81
2022/04/26 11:35:39;;;;;;;7.95;2.97;;;14.30;99.90;;;;;;5115304;28;20039;-82
2022/04/26 11:38:12;;;;;;;10.45;3.10;;;14.30;99.90;;;;;;5114847;28;20055;-80
2022/04/26 11:40:48;;;;;;;7.65;2.95;;;14.20;99.90;;;;;;5114668;28;20057;-82
2022/04/26 11:43:16;;;;;;;5.22;2.95;;;14.20;99.90;;;;;;5114553;28;20463;-82
2022/04/26 11:45:44;;;;;;;5.18;2.60;;;14.40;99.90;;;;;;5114213;28;20074;-81
2022/04/26 11:48:12;;;;;;;5.85;2.90;;;14.50;99.90;;;;;;5096431;28;20460;-80
2022/04/26 11:50:39;;;;;;;5.25;2.75;;;14.60;99.90;;;;;;5114194;28;20110;-82
2022/04/26 11:53:07;;;;;;;;;;;14.60;99.90;;;;;;5114732;28;20089;-83
2022/04/26 11:55:37;;;;;;;5.25;2.78;;;14.60;99.90;;;;;;5096501;28;19927;-82
2022/04/26 11:58:23;;;;;;;7.53;2.90;;;14.50;99.90;;;;;;5114076;28;20069;-82
2022/04/26 12:00:54;;;;;;;6.95;3.00;;;14.40;99.90;;;;;;5113427;28;20048;-82
2022/04/26 12:03:23;;;;;;;6.30;3.15;;;14.40;99.90;;;;;;5114078;28;20472;-80
2022/04/26 12:05:54;;;;;;;6.05;3.20;;;14.50;99.90;;;;;;5118382;28;20449;-80
2022/04/26 12:08:21;;;;;;;8.27;3.08;;;14.70;99.90;;;;;;5118289;28;20109;-80
2022/04/26 12:10:48;;;;;;;5.15;2.40;;;14.90;99.90;;;;;;5118089;28;20044;-81
2022/04/26 12:13:26;;;;;;;6.28;2.72;;;15.10;99.70;;;;;;5118212;27;20055;-81
2022/04/26 12:15:51;;;;;;;;;;;15.10;99.90;;;;;;5117873;28;20056;-81
2022/04/26 12:18:17;;;;;;;8.35;2.95;;;15.00;99.90;;;;;;5116910;28;19942;-81
2022/04/26 12:21:02;;;;;;;5.80;2.60;;;15.00;99.90;;;;;;5117943;28;20044;-81
2022/04/26 12:23:30;;;;;;;6.30;2.75;;;15.10;98.90;;;;;;5117607;28;20523;-81
2022/04/26 12:26:09;;;;;;;5.00;2.63;;;15.20;99.90;;;;;;5117420;28;20491;-82
2022/04/26 12:28:54;;;;;;;7.63;2.83;;;15.10;99.90;;;;;;5117568;28;20039;-83
2022/04/26 12:31:21;;;;;;;5.95;2.58;;;15.00;99.00;;;;;;5099913;28;20051;-81
2022/04/26 12:34:12;;;;;;;4.10;2.65;;;14.80;99.90;;;;;;5117576;28;20039;-80
2022/04/26 12:36:51;;;;;;;8.02;3.03;;;14.90;99.90;;;;;;5117828;28;20411;-81
2022/04/26 12:39:18;;;;;;;5.63;2.90;;;15.20;98.60;;;;;;5117792;28;20047;-81
2022/04/26 12:41:49;;;;;;;7.10;3.25;;;15.30;98.60;;;;;;5116704;28;20131;-81
2022/04/26 12:44:15;;;;;;;6.47;3.20;;;15.30;98.10;;;;;;5115807;28;20042;-81
2022/04/26 12:50:27;;;;;;;7.30;3.47;;;15.30;99.20;;;;;;5117403;28;20051;-82
2022/04/26 12:50:31;;;;;;;5.07;2.88;;;15.40;99.60;;;;;;5116924;28;20051;-82
2022/04/26 12:53:07;;;;;;;8.73;3.17;;;15.10;97.70;;;;;;5054363;28;20452;-82
2022/04/26 12:55:38;;;;;;;5.18;2.83;;;15.00;97.50;;;;;;5038309;28;20451;-83
2022/04/26 12:58:05;;;;;;;4.75;2.47;;;15.00;98.10;;;;;;5090371;28;20047;-82
2022/04/26 13:00:32;;;;;;;8.65;3.55;;;15.30;99.00;;;;;;5117012;28;20082;-83
2022/04/26 13:03:03;;;;;;;6.38;2.72;;;15.20;97.50;;;;;;5116698;28;20036;-81
2022/04/26 13:05:45;;;;;;;5.00;2.97;;;15.40;96.90;;;;;;5116848;28;20435;-82
2022/04/26 13:08:12;;;;;;;6.25;2.83;;;15.60;97.00;;;;;;5117089;28;20055;-82
2022/04/26 13:10:40;;;;;;;5.35;2.40;;;15.80;96.80;;;;;;5116989;28;20051;-82
2022/04/26 13:13:06;;;;;;;6.28;3.08;;;15.90;96.40;;;;;;5116403;28;20077;-82
2022/04/26 13:15:31;;;;;;;3.93;2.57;;;15.90;96.70;;;;;;5115742;28;20040;-81
2022/04/26 13:17:59;;;;;;;5.53;2.53;;;15.80;96.00;;;;;;5116769;28;20081;-82
2022/04/26 13:20:25;;;;;;;6.88;2.50;;;16.80;95.90;;;;;;5117244;27;20044;-81
2022/04/26 13:22:50;;;;;;;8.13;2.83;;;16.10;96.50;;;;;;5116789;28;20085;-81
2022/04/26 13:25:16;;;;;;;7.90;2.60;;;16.20;96.70;;;;;;5116819;28;20083;-82
2022/04/26 13:27:41;;;;;;;5.83;2.40;;;16.10;95.20;;;;;;5115336;28;20047;-82
2022/04/26 13:30:08;;;;;;;6.03;2.40;;;16.00;95.00;;;;;;5116701;28;20130;-83
2022/04/26 13:32:34;;;;;;;5.20;2.15;;;16.10;95.20;;;;;;5116867;28;20048;-81
2022/04/26 13:35:00;;;;;;;3.80;2.30;;;16.20;93.40;;;;;;5116541;28;20047;-82
2022/04/26 13:37:26;;;;;;;4.93;2.38;;;16.20;92.30;;;;;;5116582;28;20395;-81
2022/04/26 13:39:54;;;;;;;8.13;2.70;;;16.20;93.10;;;;;;5115834;28;20039;-80
2022/04/26 13:42:21;;;;;;;4.13;2.60;;;16.30;93.90;;;;;;5115262;28;20047;-82
2022/04/26 13:44:47;;;;;;;8.18;2.83;;;16.20;94.30;;;;;;5116264;28;20047;-81
2022/04/26 13:47:13;;;;;;;8.07;2.63;;;15.60;93.60;;;;;;5116605;28;20070;-81
2022/04/26 13:49:42;;;;;;;5.85;2.40;;;15.40;94.40;;;;;;5115206;28;20039;-82
2022/04/26 13:52:09;;;;;;;6.72;2.53;;;15.30;95.10;;;;;;5116039;28;20130;-81
2022/04/26 13:54:35;;;;;;;6.82;2.83;;;15.40;95.10;;;;;;5116111;28;20039;-81
2022/04/26 13:57:01;;;;;;;5.63;2.50;;;15.60;95.20;;;;;;5115283;28;20035;-81
2022/04/26 13:59:27;;;;;;;7.03;2.47;;;15.60;93.70;;;;;;5098098;28;20455;-81
2022/04/26 14:01:54;;;;;;;7.13;2.70;;;15.70;94.10;;;;;;5115026;28;20130;-81
2022/04/26 14:04:23;;;;;;;6.15;2.63;;;16.00;94.80;;;;;;5131740;27;20039;-82
2022/04/26 14:06:49;;;;;;;5.28;2.75;;;16.10;94.60;;;;;;5132019;27;20135;-82
2022/04/26 14:09:17;;;;;;;6.35;3.03;;;16.10;92.90;;;;;;5115135;28;20146;-81
2022/04/26 14:11:43;;;;;;;7.43;2.38;;;16.10;93.70;;;;;;5115748;28;20091;-83
2022/04/26 14:22:21;;;;;;;3.78;2.50;;;15.90;92.40;;;;;;5116035;28;20043;-83
2022/04/26 14:24:52;;;;;;;3.67;2.10;;;15.80;92.20;;;;;;5116281;28;20073;-82
2022/04/26 14:27:18;;;;;;;7.47;2.25;;;15.80;93.10;;;;;;5115519;28;20074;-81
2022/04/26 14:29:43;;;;;;;6.17;2.23;;;15.80;92.90;;;;;;5114887;28;20134;-82
2022/04/26 14:32:09;;;;;;;4.93;2.40;;;15.70;92.30;;;;;;5114519;28;20472;-82
2022/04/26 14:34:36;;;;;;;4.77;2.40;;;15.80;92.90;;;;;;5115704;28;20062;-83
2022/04/26 14:37:03;;;;;;;7.88;2.50;;;15.60;90.80;;;;;;5115694;28;20459;-81
2022/04/26 14:39:29;;;;;;;4.15;1.85;;;15.70;91.90;;;;;;5115486;27;20126;-81
2022/04/26 14:41:55;;;;;;;4.82;2.20;;;15.80;93.40;;;;;;5115317;28;20043;-81
2022/04/26 14:44:20;;;;;;;4.40;2.03;;;15.80;92.00;;;;;;5114904;28;20044;-83
2022/04/26 14:46:46;;;;;;;5.00;2.10;;;15.90;91.70;;;;;;5114643;28;20050;-82
2022/04/26 14:49:11;;;;;;;4.70;2.00;;;15.90;92.40;;;;;;5131691;27;20069;-81
2022/04/26 14:51:37;;;;;;;4.03;2.30;;;15.90;91.10;;;;;;5115548;28;20047;-82
2022/04/26 14:54:03;;;;;;;7.67;2.03;;;15.90;91.50;;;;;;5131201;27;20069;-81
2022/04/26 14:56:28;;;;;;;4.93;2.13;;;15.90;91.60;;;;;;5131159;27;20106;-82
2022/04/26 14:58:54;;;;;;;4.43;2.05;;;16.10;91.90;;;;;;5113840;28;20047;-81
2022/04/26 15:01:20;;;;;;;4.47;2.00;;;16.00;92.00;;;;;;5113615;28;20048;-82
2022/04/26 15:03:45;;;;;;;4.70;2.00;;;15.90;91.30;;;;;;5114495;28;20537;-81
2022/04/26 15:06:12;;;;;;;6.57;1.90;;;15.90;90.70;;;;;;5114639;28;20047;-83
2022/04/26 15:11:21;;;;;;;6.03;2.30;;;15.90;91.20;;;;;;5113613;28;20043;-82
2022/04/26 15:16:37;;;;;;;4.65;1.75;;;15.80;91.00;;;;;;5113837;28;20047;-81
2022/04/26 15:19:07;;;;;;;4.80;2.17;;;15.80;91.30;;;;;;5114348;28;20483;-82
2022/04/26 15:21:33;;;;;;;4.70;1.90;;;15.80;91.30;;;;;;5114645;28;20043;-82
2022/04/26 15:23:59;;;;;;;4.75;1.90;;;15.90;93.20;;;;;;5113241;28;20036;-81
2022/04/26 15:26:25;;;;;;;5.40;2.28;;;15.90;93.30;;;;;;5113637;28;20036;-82
2022/04/26 15:28:51;;;;;;;4.43;2.10;;;15.90;91.50;;;;;;5113453;28;20044;-82
2022/04/26 15:31:20;;;;;;;6.15;2.25;;;15.80;92.00;;;;;;5130214;27;20449;-82
2022/04/26 15:33:47;;;;;;;5.82;2.30;;;15.80;91.90;;;;;;5114430;28;20043;-81
2022/04/26 15:36:14;;;;;;;3.95;2.17;;;15.70;91.60;;;;;;5114451;28;20124;-82
2022/04/26 15:38:40;;;;;;;5.80;2.17;;;15.70;91.60;;;;;;5113629;28;20058;-81
2022/04/26 15:41:06;;;;;;;4.90;1.87;;;15.70;91.60;;;;;;5114210;28;20472;-82
2022/04/26 15:43:33;;;;;;;5.40;2.30;;;15.80;92.00;;;;;;5114010;28;20471;-82
2022/04/26 15:46:00;;;;;;;5.00;2.10;;;15.70;91.40;;;;;;5114138;28;20483;-82
2022/04/26 15:48:26;;;;;;;3.55;1.90;;;15.70;93.20;;;;;;5114560;28;20103;-82
2022/04/26 15:50:52;;;;;;;4.60;2.00;;;15.80;93.10;;;;;;5113937;28;20048;-82
2022/04/26 15:53:17;;;;;;;3.40;2.00;;;15.60;91.30;;;;;;5096513;28;20063;-82
2022/04/26 15:55:43;;;;;;;5.03;2.33;;;15.50;91.90;;;;;;5114029;28;20043;-82
2022/04/26 15:58:08;;;;;;;4.97;2.17;;;15.30;92.00;;;;;;5114053;28;20104;-82
2022/04/26 16:00:34;;;;;;;6.05;2.10;;;15.10;91.90;;;;;;5114060;28;20044;-81
2022/04/26 16:03:01;;;;;;;5.93;2.07;;;14.70;92.10;;;;;;5113212;28;20556;-83
2022/04/26 16:05:28;;;;;;;7.20;2.92;;;14.80;93.00;;;;;;5114147;28;20173;-82
2022/04/26 16:07:53;;;;;;;6.35;2.20;;;14.60;93.50;;;;;;5114135;28;20039;-82
2022/04/26 16:21:34;;;;;;;3.25;2.20;;;14.70;95.60;;;;;;5034500;28;20107;-82
2022/04/26 16:24:00;;;;;;;4.33;2.10;;;14.60;94.60;;;;;;5095799;28;20047;-82
2022/04/26 16:26:27;;;;;;;9.10;2.65;;;14.60;95.00;;;;;;5112986;28;20086;-83
2022/04/26 16:28:53;;;;;;;5.25;2.25;;;14.70;94.40;;;;;;5096323;28;20387;-82
2022/04/26 16:31:24;;;;;;;6.07;2.20;;;14.40;95.10;;;;;;5112999;28;20039;-80
2022/04/26 16:33:50;;;;;;;4.60;2.20;;;14.20;95.00;;;;;;5113392;28;20054;-82
2022/04/26 16:36:17;;;;;;;6.50;2.30;;;14.10;97.20;;;;;;5114030;28;20032;-83
2022/04/26 16:38:43;;;;;;;5.38;2.60;;;14.00;95.70;;;;;;5114067;28;20044;-82
2022/04/26 16:41:09;;;;;;;3.53;2.00;;;13.90;94.70;;;;;;5095620;28;20047;-81
2022/04/26 16:43:34;;;;;;;3.80;2.00;;;13.80;95.40;;;;;;5112721;28;20040;-82
2022/04/26 16:46:03;;;;;;;5.57;2.33;;;13.70;95.00;;;;;;5112854;28;20058;-81
2022/04/26 16:48:28;;;;;;;4.30;2.10;;;13.50;94.90;;;;;;5112717;28;20043;-82
2022/04/26 16:50:54;;;;;;;5.67;2.73;;;13.50;95.80;;;;;;5114734;28;20502;-81
2022/04/26 16:53:20;;;;;;;4.53;2.47;;;13.60;95.90;;;;;;5099485;28;20048;-82
2022/04/26 16:55:46;;;;;;;4.97;2.33;;;13.50;96.30;;;;;;5099328;28;20108;-81
2022/04/26 16:58:13;;;;;;;5.07;2.40;;;13.30;96.40;;;;;;5117276;28;20043;-82
2022/04/26 17:00:41;;;;;;;4.28;2.58;;;13.20;96.00;;;;;;5116403;28;20342;-82
2022/04/26 17:03:07;;;;;;;5.82;2.53;;;13.20;96.80;;;;;;5117243;28;20036;-81
2022/04/26 17:05:32;;;;;;;4.83;2.43;;;13.10;95.90;;;;;;5116742;28;20089;-81
2022/04/26 17:07:58;;;;;;;5.68;2.30;;;12.90;96.40;;;;;;5118004;28;20051;-81
2022/04/26 17:10:24;;;;;;;4.27;2.20;;;12.90;96.70;;;;;;5117792;28;20051;-80